createdAt,value
2018-11-02T13:24:36.336Z,26.265869
2018-11-02T13:24:38.800Z,26.255798
2018-11-02T13:24:42.255Z,26.265869
2018-11-02T13:24:44.707Z,26.255798
2018-11-02T13:24:47.166Z,26.255798
2018-11-02T13:24:49.616Z,26.255798
2018-11-02T13:24:52.074Z,26.265869
2018-11-02T13:25:18.918Z,26.296082
2018-11-02T13:25:21.366Z,26.296082
2018-11-02T13:25:23.850Z,26.296082
2018-11-02T13:25:26.303Z,26.27594
2018-11-02T13:25:28.907Z,26.306152
2018-11-02T13:25:31.296Z,26.306152
2018-11-02T13:25:33.752Z,26.296082
2018-11-02T13:25:36.284Z,26.296082
2018-11-02T13:25:38.716Z,26.326294
2018-11-02T13:25:41.171Z,26.326294
2018-11-02T13:25:43.697Z,26.336365
2018-11-02T13:25:46.055Z,26.326294
2018-11-02T13:25:48.615Z,26.336365
2018-11-02T13:25:51.013Z,26.356506
2018-11-02T13:25:53.478Z,26.356506
2018-11-02T13:25:55.980Z,26.336365
2018-11-02T13:25:59.419Z,26.336365
2018-11-02T13:26:01.869Z,26.356506
2018-11-02T13:26:04.330Z,26.356506
2018-11-02T13:26:06.819Z,26.356506
2018-11-02T13:26:09.332Z,26.336365
2018-11-02T13:26:11.788Z,26.336365
2018-11-02T13:26:14.184Z,26.336365
2018-11-02T13:26:16.645Z,26.336365
2018-11-02T13:26:19.214Z,26.336365
2018-11-02T13:26:21.686Z,26.336365
2018-11-02T13:26:24.068Z,26.326294
2018-11-02T13:26:26.497Z,26.306152
2018-11-02T13:26:29.031Z,26.306152
2018-11-02T13:26:31.415Z,26.306152
2018-11-02T13:26:34.879Z,26.306152
2018-11-02T13:26:38.358Z,26.296082
2018-11-02T13:26:40.796Z,26.296082
2018-11-02T13:26:43.187Z,26.296082
2018-11-02T13:26:45.636Z,26.27594
2018-11-02T13:26:48.105Z,26.27594
2018-11-02T13:26:50.558Z,26.27594
2018-11-02T13:26:53.016Z,26.265869
2018-11-02T13:26:55.476Z,26.265869
2018-11-02T13:26:57.976Z,26.255798
2018-11-02T13:27:00.445Z,26.235657
2018-11-02T13:27:02.873Z,26.225586
2018-11-02T13:27:05.336Z,26.225586
2018-11-02T13:27:07.815Z,26.225586
2018-11-02T13:27:10.276Z,26.205444
2018-11-02T13:27:12.745Z,26.195374
2018-11-02T13:27:15.216Z,26.185303
2018-11-02T13:27:17.687Z,26.15509
2018-11-02T13:27:20.113Z,26.15509
2018-11-02T13:27:22.566Z,26.124878
2018-11-02T13:27:25.034Z,26.124878
2018-11-02T13:27:27.496Z,26.104736
2018-11-02T13:27:29.957Z,26.104736
2018-11-02T13:27:32.454Z,26.104736
2018-11-02T13:27:34.897Z,26.084595
2018-11-02T13:27:37.378Z,26.074524
2018-11-02T13:27:39.833Z,26.054382
2018-11-02T13:27:42.315Z,26.054382
2018-11-02T13:27:44.774Z,26.044312
2018-11-02T13:27:47.226Z,26.044312
2018-11-02T13:27:49.685Z,26.044312
2018-11-02T13:27:52.145Z,26.034241
2018-11-02T13:27:54.611Z,26.034241
2018-11-02T13:27:57.073Z,26.034241
2018-11-02T13:28:00.529Z,26.004028
2018-11-02T13:28:02.994Z,26.004028
2018-11-02T13:28:05.447Z,26.004028
2018-11-02T13:28:07.913Z,25.963745
2018-11-02T13:28:10.366Z,25.983887
2018-11-02T13:28:12.837Z,25.963745
2018-11-02T13:28:16.299Z,25.953674
2018-11-02T13:28:18.784Z,25.953674
2018-11-02T13:28:21.251Z,25.953674
2018-11-02T13:28:23.624Z,25.933533
2018-11-02T13:28:26.088Z,25.933533
2018-11-02T13:28:28.557Z,25.923462
2018-11-02T13:28:31.016Z,25.90332
2018-11-02T13:28:33.476Z,25.90332
2018-11-02T13:28:36.676Z,25.883179
2018-11-02T13:28:39.156Z,25.883179
2018-11-02T13:28:41.653Z,25.883179
2018-11-02T13:28:44.125Z,25.852966
2018-11-02T13:28:46.545Z,25.863037
2018-11-02T13:28:49.006Z,25.852966
2018-11-02T13:28:51.456Z,25.852966
2018-11-02T13:28:53.887Z,25.852966
2018-11-02T13:28:56.366Z,25.852966
2018-11-02T13:28:59.844Z,25.832825
2018-11-02T13:29:02.315Z,25.852966
2018-11-02T13:29:06.757Z,25.852966
2018-11-02T13:29:09.254Z,25.863037
2018-11-02T13:29:11.726Z,25.863037
2018-11-02T13:29:14.215Z,25.89325
2018-11-02T13:29:16.678Z,25.883179
2018-11-02T13:29:19.146Z,25.89325
2018-11-02T13:29:21.594Z,25.923462
2018-11-02T13:29:24.026Z,25.923462
2018-11-02T13:29:26.487Z,25.923462
2018-11-02T13:29:28.986Z,25.923462
2018-11-02T13:29:31.476Z,25.90332
2018-11-02T13:29:33.943Z,25.923462
2018-11-02T13:29:36.413Z,25.89325
2018-11-02T13:29:38.861Z,25.90332
2018-11-02T13:29:41.333Z,25.90332
2018-11-02T13:29:43.766Z,25.89325
2018-11-02T13:29:46.306Z,25.883179
2018-11-02T13:29:48.804Z,25.883179
2018-11-02T13:29:51.244Z,25.883179
2018-11-02T13:29:53.716Z,25.863037
2018-11-02T13:29:56.149Z,25.852966
2018-11-02T13:29:58.621Z,25.863037
2018-11-02T13:30:01.129Z,25.863037
2018-11-02T13:30:03.645Z,25.863037
2018-11-02T13:30:07.079Z,25.852966
2018-11-02T13:30:09.541Z,25.852966
2018-11-02T13:30:12.057Z,25.852966
2018-11-02T13:30:14.515Z,25.852966
2018-11-02T13:30:16.965Z,25.852966
2018-11-02T13:30:19.467Z,25.832825
2018-11-02T13:30:21.968Z,25.832825
2018-11-02T13:30:24.474Z,25.822754
2018-11-02T13:30:26.908Z,25.822754
2018-11-02T13:30:29.341Z,25.822754
2018-11-02T13:30:31.723Z,25.812683
2018-11-02T13:30:34.168Z,25.812683
2018-11-02T13:30:36.606Z,25.812683
2018-11-02T13:30:39.113Z,25.782471
2018-11-02T13:30:41.674Z,25.7724
2018-11-02T13:30:44.128Z,25.7724
2018-11-02T13:30:46.589Z,25.7724
2018-11-02T13:30:49.013Z,25.752258
2018-11-02T13:30:51.488Z,25.742188
2018-11-02T13:30:54.027Z,25.742188
2018-11-02T13:30:56.474Z,25.732117
2018-11-02T13:30:58.973Z,25.732117
2018-11-02T13:31:01.390Z,25.711975
2018-11-02T13:31:03.844Z,25.711975
2018-11-02T13:31:06.273Z,25.701904
2018-11-02T13:31:08.700Z,25.681763
2018-11-02T13:31:11.276Z,25.671692
2018-11-02T13:31:13.684Z,25.661621
2018-11-02T13:31:16.136Z,25.641479
2018-11-02T13:31:18.652Z,25.631409
2018-11-02T13:31:21.129Z,25.611267
2018-11-02T13:31:23.678Z,25.591125
2018-11-02T13:31:27.110Z,25.581055
2018-11-02T13:31:29.610Z,25.581055
2018-11-02T13:31:32.016Z,25.581055
2018-11-02T13:31:34.490Z,25.550842
2018-11-02T13:31:36.952Z,25.550842
2018-11-02T13:31:39.380Z,25.550842
2018-11-02T13:31:41.861Z,25.530701
2018-11-02T13:31:44.368Z,25.52063
2018-11-02T13:31:46.862Z,25.52063
2018-11-02T13:31:49.288Z,25.52063
2018-11-02T13:31:51.750Z,25.510559
2018-11-02T13:31:54.261Z,25.490417
2018-11-02T13:31:56.679Z,25.490417
2018-11-02T13:31:59.091Z,25.510559
2018-11-02T13:32:01.637Z,25.510559
2018-11-02T13:32:04.201Z,25.480347
2018-11-02T13:32:06.436Z,25.480347
2018-11-02T13:32:08.885Z,25.480347
2018-11-02T13:32:11.327Z,25.460205
2018-11-02T13:32:14.808Z,25.460205
2018-11-02T13:32:17.294Z,25.450134
2018-11-02T13:32:19.817Z,25.460205
2018-11-02T13:32:22.229Z,25.450134
2018-11-02T13:32:24.693Z,25.450134
2018-11-02T13:32:27.157Z,25.409851
2018-11-02T13:32:29.646Z,25.429993
2018-11-02T13:32:32.117Z,25.429993
2018-11-02T13:32:35.586Z,25.409851
2018-11-02T13:32:38.057Z,25.409851
2018-11-02T13:32:41.507Z,25.39978
2018-11-02T13:32:43.955Z,25.39978
2018-11-02T13:32:46.445Z,25.379639
2018-11-02T13:32:48.896Z,25.379639
2018-11-02T13:32:52.330Z,25.379639
2018-11-02T13:32:54.795Z,25.359497
2018-11-02T13:32:57.246Z,25.369568
2018-11-02T13:32:59.712Z,25.339355
2018-11-02T13:33:02.163Z,25.339355
2018-11-02T13:33:04.656Z,25.329285
2018-11-02T13:33:07.135Z,25.329285
2018-11-02T13:33:09.606Z,25.309143
2018-11-02T13:33:12.107Z,25.309143
2018-11-02T13:33:14.584Z,25.299072
2018-11-02T13:33:17.033Z,25.278931
2018-11-02T13:33:19.490Z,25.278931
2018-11-02T13:33:21.948Z,25.278931
2018-11-02T13:33:24.407Z,25.258789
2018-11-02T13:33:26.876Z,25.258789
2018-11-02T13:33:29.325Z,25.228577
2018-11-02T13:33:31.768Z,25.228577
2018-11-02T13:33:34.226Z,25.218506
2018-11-02T13:33:36.812Z,25.218506
2018-11-02T13:33:39.185Z,25.208435
2018-11-02T13:33:41.627Z,25.188293
2018-11-02T13:33:44.084Z,25.178223
2018-11-02T13:33:46.527Z,25.158081
2018-11-02T13:33:49.475Z,25.158081
2018-11-02T13:33:51.419Z,25.14801
2018-11-02T13:33:53.846Z,25.14801
2018-11-02T13:33:56.305Z,25.14801
2018-11-02T13:33:58.745Z,25.14801
2018-11-02T13:34:01.211Z,25.137939
2018-11-02T13:34:03.699Z,25.107727
2018-11-02T13:34:06.165Z,25.107727
2018-11-02T13:34:08.644Z,25.087585
2018-11-02T13:34:11.106Z,25.077515
2018-11-02T13:34:13.563Z,25.037231
2018-11-02T13:34:16.016Z,25.037231
2018-11-02T13:34:18.481Z,24.996948
2018-11-02T13:34:20.967Z,24.996948
2018-11-02T13:34:23.443Z,24.986877
2018-11-02T13:34:25.905Z,24.986877
2018-11-02T13:34:28.327Z,24.966736
2018-11-02T13:34:30.769Z,24.966736
2018-11-02T13:34:33.236Z,24.956665
2018-11-02T13:34:35.676Z,24.956665
2018-11-02T13:34:38.146Z,24.956665
2018-11-02T13:34:40.614Z,24.966736
2018-11-02T13:34:43.064Z,24.936523
2018-11-02T13:34:45.546Z,24.936523
2018-11-02T13:34:47.987Z,24.926453
2018-11-02T13:34:50.474Z,24.926453
2018-11-02T13:34:52.917Z,24.906311
2018-11-02T13:34:55.396Z,24.906311
2018-11-02T13:34:57.864Z,24.906311
2018-11-02T13:35:00.314Z,24.906311
2018-11-02T13:35:02.794Z,24.906311
2018-11-02T13:35:05.246Z,24.89624
2018-11-02T13:35:07.706Z,24.89624
2018-11-02T13:35:10.184Z,24.886169
2018-11-02T13:35:12.606Z,24.886169
2018-11-02T13:35:15.066Z,24.845886
2018-11-02T13:35:17.526Z,24.845886
2018-11-02T13:35:19.984Z,24.845886
2018-11-02T13:35:22.416Z,24.835815
2018-11-02T13:35:24.886Z,24.845886
2018-11-02T13:35:27.354Z,24.815674
2018-11-02T13:35:29.807Z,24.815674
2018-11-02T13:35:32.266Z,24.805603
2018-11-02T13:35:34.758Z,24.805603
2018-11-02T13:35:37.206Z,24.805603
2018-11-02T13:35:39.676Z,24.785461
2018-11-02T13:35:42.157Z,24.805603
2018-11-02T13:35:44.644Z,24.775391
2018-11-02T13:35:47.137Z,24.755249
2018-11-02T13:35:49.595Z,24.775391
2018-11-02T13:35:52.062Z,24.755249
2018-11-02T13:35:54.516Z,24.775391
2018-11-02T13:35:56.966Z,24.755249
2018-11-02T13:35:59.416Z,24.745178
2018-11-02T13:36:01.868Z,24.714966
2018-11-02T13:36:04.303Z,24.704895
2018-11-02T13:36:06.809Z,24.684753
2018-11-02T13:36:09.264Z,24.664612
2018-11-02T13:36:11.755Z,24.634399
2018-11-02T13:36:14.177Z,24.624329
2018-11-02T13:36:17.659Z,24.604187
2018-11-02T13:36:20.068Z,24.563904
2018-11-02T13:36:22.665Z,24.553833
2018-11-02T13:36:25.146Z,24.523621
2018-11-02T13:36:27.643Z,24.483337
2018-11-02T13:36:29.915Z,24.453125
2018-11-02T13:36:32.559Z,24.443054
2018-11-02T13:36:35.020Z,24.432983
2018-11-02T13:36:37.432Z,24.402771
2018-11-02T13:36:39.917Z,24.402771
2018-11-02T13:36:42.227Z,24.402771
2018-11-02T13:36:44.872Z,24.382629
2018-11-02T13:36:47.184Z,24.382629
2018-11-02T13:36:49.558Z,24.382629
2018-11-02T13:36:51.989Z,24.382629
2018-11-02T13:36:54.377Z,24.372559
2018-11-02T13:36:56.859Z,24.372559
2018-11-02T13:36:59.291Z,24.372559
2018-11-02T13:37:01.768Z,24.382629
2018-11-02T13:37:04.203Z,24.372559
2018-11-02T13:37:06.702Z,24.372559
2018-11-02T13:37:09.087Z,24.372559
2018-11-02T13:37:11.555Z,24.362488
2018-11-02T13:37:14.034Z,24.372559
2018-11-02T13:37:16.515Z,24.362488
2018-11-02T13:37:18.857Z,24.362488
2018-11-02T13:37:21.337Z,24.342346
2018-11-02T13:37:23.936Z,24.362488
2018-11-02T13:37:26.384Z,24.362488
2018-11-02T13:37:28.844Z,24.342346
2018-11-02T13:37:31.326Z,24.342346
2018-11-02T13:37:33.806Z,24.342346
2018-11-02T13:37:37.284Z,24.342346
2018-11-02T13:37:40.677Z,24.332275
2018-11-02T13:37:43.141Z,24.332275
2018-11-02T13:37:45.607Z,24.332275
2018-11-02T13:37:48.093Z,24.332275
2018-11-02T13:37:50.544Z,24.312134
2018-11-02T13:37:52.956Z,24.291992
2018-11-02T13:37:55.415Z,24.312134
2018-11-02T13:37:57.883Z,24.291992
2018-11-02T13:38:00.336Z,24.291992
2018-11-02T13:38:02.806Z,24.291992
2018-11-02T13:38:05.257Z,24.291992
2018-11-02T13:38:07.736Z,24.291992
2018-11-02T13:38:10.258Z,24.281921
2018-11-02T13:38:12.665Z,24.26178
2018-11-02T13:38:15.124Z,24.26178
2018-11-02T13:38:17.589Z,24.26178
2018-11-02T13:38:20.067Z,24.26178
2018-11-02T13:38:23.506Z,24.26178
2018-11-02T13:38:25.976Z,24.26178
2018-11-02T13:38:28.443Z,24.251709
2018-11-02T13:38:30.906Z,24.251709
2018-11-02T13:38:33.370Z,24.251709
2018-11-02T13:38:35.826Z,24.231567
2018-11-02T13:38:38.246Z,24.221497
2018-11-02T13:38:40.706Z,24.251709
2018-11-02T13:38:43.144Z,24.221497
2018-11-02T13:38:45.594Z,24.221497
2018-11-02T13:38:48.046Z,24.221497
2018-11-02T13:38:50.467Z,24.221497
2018-11-02T13:38:52.913Z,24.221497
2018-11-02T13:38:55.374Z,24.211426
2018-11-02T13:38:57.855Z,24.211426
2018-11-02T13:39:00.327Z,24.211426
2018-11-02T13:39:02.783Z,24.191284
2018-11-02T13:39:05.287Z,24.211426
2018-11-02T13:39:07.737Z,24.211426
2018-11-02T13:39:10.208Z,24.191284
2018-11-02T13:39:12.661Z,24.191284
2018-11-02T13:39:15.127Z,24.191284
2018-11-02T13:39:17.595Z,24.181213
2018-11-02T13:39:20.036Z,24.161072
2018-11-02T13:39:22.456Z,24.181213
2018-11-02T13:39:24.936Z,24.161072
2018-11-02T13:39:27.385Z,24.161072
2018-11-02T13:39:29.856Z,24.181213
2018-11-02T13:39:32.296Z,24.161072
2018-11-02T13:39:34.746Z,24.161072
2018-11-02T13:39:37.215Z,24.151001
2018-11-02T13:39:39.674Z,24.161072
2018-11-02T13:39:42.126Z,24.151001
2018-11-02T13:39:44.567Z,24.151001
2018-11-02T13:39:47.018Z,24.130859
2018-11-02T13:39:50.467Z,24.130859
2018-11-02T13:39:52.936Z,24.130859
2018-11-02T13:39:55.387Z,24.130859
2018-11-02T13:39:57.816Z,24.110718
2018-11-02T13:40:00.255Z,24.130859
2018-11-02T13:40:02.742Z,24.110718
2018-11-02T13:40:05.193Z,24.110718
2018-11-02T13:40:07.656Z,24.110718
2018-11-02T13:40:10.104Z,24.130859
2018-11-02T13:40:12.567Z,24.100647
2018-11-02T13:40:14.996Z,24.110718
2018-11-02T13:40:17.443Z,24.080505
2018-11-02T13:40:19.885Z,24.110718
2018-11-02T13:40:22.355Z,24.100647
2018-11-02T13:40:24.835Z,24.100647
2018-11-02T13:40:27.307Z,24.100647
2018-11-02T13:40:29.752Z,24.080505
2018-11-02T13:40:32.218Z,24.070435
2018-11-02T13:40:34.663Z,24.070435
2018-11-02T13:40:37.146Z,24.070435
2018-11-02T13:40:39.607Z,24.070435
2018-11-02T13:40:42.105Z,24.060364
2018-11-02T13:40:44.541Z,24.060364
2018-11-02T13:40:47.016Z,24.060364
2018-11-02T13:40:50.457Z,24.040222
2018-11-02T13:40:52.896Z,24.030151
2018-11-02T13:40:55.334Z,24.030151
2018-11-02T13:40:57.762Z,24.040222
2018-11-02T13:41:00.214Z,24.040222
2018-11-02T13:41:02.735Z,24.01001
2018-11-02T13:41:05.281Z,24.01001
2018-11-02T13:41:07.725Z,24.01001
2018-11-02T13:41:10.163Z,24.01001
2018-11-02T13:41:12.613Z,23.979797
2018-11-02T13:41:15.080Z,23.979797
2018-11-02T13:41:17.556Z,23.969727
2018-11-02T13:41:20.035Z,23.969727
2018-11-02T13:41:22.456Z,23.969727
2018-11-02T13:41:24.945Z,23.969727
2018-11-02T13:41:27.416Z,23.969727
2018-11-02T13:41:29.873Z,23.969727
2018-11-02T13:41:32.346Z,23.959656
2018-11-02T13:41:34.794Z,23.969727
2018-11-02T13:41:37.306Z,23.959656
2018-11-02T13:41:39.844Z,23.939514
2018-11-02T13:41:42.306Z,23.939514
2018-11-02T13:41:44.776Z,23.919373
2018-11-02T13:41:47.234Z,23.939514
2018-11-02T13:41:49.724Z,23.909302
2018-11-02T13:41:52.194Z,23.919373
2018-11-02T13:41:54.646Z,23.919373
2018-11-02T13:41:57.115Z,23.919373
2018-11-02T13:41:59.556Z,23.919373
2018-11-02T13:42:02.025Z,23.909302
2018-11-02T13:42:04.532Z,23.909302
2018-11-02T13:42:06.994Z,23.909302
2018-11-02T13:42:09.432Z,23.88916
2018-11-02T13:42:11.895Z,23.88916
2018-11-02T13:42:14.345Z,23.909302
2018-11-02T13:42:16.785Z,23.88916
2018-11-02T13:42:19.226Z,23.88916
2018-11-02T13:42:21.753Z,23.88916
2018-11-02T13:42:24.166Z,23.88916
2018-11-02T13:42:26.627Z,23.88916
2018-11-02T13:42:29.065Z,23.88916
2018-11-02T13:42:31.518Z,23.909302
2018-11-02T13:42:33.965Z,23.909302
2018-11-02T13:42:36.406Z,23.88916
2018-11-02T13:42:38.836Z,23.909302
2018-11-02T13:42:41.306Z,23.88916
2018-11-02T13:42:43.764Z,23.88916
2018-11-02T13:42:46.247Z,23.909302
2018-11-02T13:42:48.673Z,23.88916
2018-11-02T13:42:51.259Z,23.88916
2018-11-02T13:42:53.876Z,23.88916
2018-11-02T13:42:56.295Z,23.88916
2018-11-02T13:42:59.697Z,23.88916
2018-11-02T13:43:02.306Z,23.879089
2018-11-02T13:43:04.726Z,23.88916
2018-11-02T13:43:07.206Z,23.909302
2018-11-02T13:43:09.791Z,23.879089
2018-11-02T13:43:12.301Z,23.879089
2018-11-02T13:43:14.690Z,23.879089
2018-11-02T13:43:17.197Z,23.879089
2018-11-02T13:43:19.624Z,23.879089
2018-11-02T13:43:21.945Z,23.879089
2018-11-02T13:43:24.371Z,23.88916
2018-11-02T13:43:26.793Z,23.879089
2018-11-02T13:43:29.307Z,23.88916
2018-11-02T13:43:31.747Z,23.88916
2018-11-02T13:43:34.184Z,23.879089
2018-11-02T13:43:36.680Z,23.879089
2018-11-02T13:43:39.173Z,23.88916
2018-11-02T13:43:41.609Z,23.879089
2018-11-02T13:43:44.046Z,23.879089
2018-11-02T13:43:46.492Z,23.88916
2018-11-02T13:43:48.959Z,23.88916
2018-11-02T13:43:51.327Z,23.879089
2018-11-02T13:43:53.777Z,23.88916
2018-11-02T13:43:56.246Z,23.879089
2018-11-02T13:43:58.684Z,23.879089
2018-11-02T13:44:01.116Z,23.879089
2018-11-02T13:44:03.579Z,23.88916
2018-11-02T13:44:06.053Z,23.879089
2018-11-02T13:44:08.467Z,23.879089
2018-11-02T13:44:10.936Z,23.879089
2018-11-02T13:44:13.421Z,23.858948
2018-11-02T13:44:15.896Z,23.879089
2018-11-02T13:44:18.357Z,23.88916
2018-11-02T13:44:20.776Z,23.858948
2018-11-02T13:44:23.207Z,23.879089
2018-11-02T13:44:25.665Z,23.879089
2018-11-02T13:44:28.130Z,23.879089
2018-11-02T13:44:30.586Z,23.879089
2018-11-02T13:44:33.045Z,23.879089
2018-11-02T13:44:35.466Z,23.879089
2018-11-02T13:44:37.905Z,23.879089
2018-11-02T13:44:40.342Z,23.879089
2018-11-02T13:44:42.776Z,23.88916
2018-11-02T13:44:45.255Z,23.858948
2018-11-02T13:44:47.706Z,23.879089
2018-11-02T13:44:50.158Z,23.858948
2018-11-02T13:44:52.583Z,23.879089
2018-11-02T13:44:55.047Z,23.858948
2018-11-02T13:44:57.513Z,23.858948
2018-11-02T13:44:59.983Z,23.838806
2018-11-02T13:45:02.456Z,23.838806
2018-11-02T13:45:04.966Z,23.838806
2018-11-02T13:45:07.428Z,23.818665
2018-11-02T13:45:09.878Z,23.838806
2018-11-02T13:45:12.317Z,23.788452
2018-11-02T13:45:14.729Z,23.738098
2018-11-02T13:45:17.195Z,23.63739
2018-11-02T13:45:19.623Z,23.546753
2018-11-02T13:45:22.066Z,23.486328
2018-11-02T13:45:24.525Z,23.415833
2018-11-02T13:45:27.026Z,23.365479
2018-11-02T13:45:29.461Z,23.294983
2018-11-02T13:45:31.904Z,23.284912
2018-11-02T13:45:34.334Z,23.234558
2018-11-02T13:45:36.779Z,23.174133
2018-11-02T13:45:39.256Z,23.13385
2018-11-02T13:45:41.702Z,23.073425
2018-11-02T13:45:44.146Z,23.043213
2018-11-02T13:45:47.568Z,23.013
2018-11-02T13:45:50.040Z,22.962646
2018-11-02T13:45:52.475Z,22.932434
2018-11-02T13:45:54.914Z,22.912292
2018-11-02T13:45:57.374Z,22.912292
2018-11-02T13:45:59.855Z,22.861938
2018-11-02T13:46:02.296Z,22.811584
2018-11-02T13:46:04.735Z,22.771301
2018-11-02T13:46:07.183Z,22.710876
2018-11-02T13:46:09.638Z,22.660522
2018-11-02T13:46:12.076Z,22.620239
2018-11-02T13:46:14.526Z,22.610168
2018-11-02T13:46:16.974Z,22.579956
2018-11-02T13:46:19.426Z,22.559814
2018-11-02T13:46:21.866Z,22.529602
2018-11-02T13:46:24.320Z,22.549744
2018-11-02T13:46:26.787Z,22.529602
2018-11-02T13:46:29.243Z,22.529602
2018-11-02T13:46:31.684Z,22.519531
2018-11-02T13:46:34.146Z,22.489319
2018-11-02T13:46:36.599Z,22.37854
2018-11-02T13:46:39.035Z,22.297974
2018-11-02T13:46:41.494Z,22.227478
2018-11-02T13:46:43.939Z,22.207336
2018-11-02T13:46:46.377Z,22.12677
2018-11-02T13:46:48.854Z,22.086487
2018-11-02T13:46:51.315Z,22.056274
2018-11-02T13:46:53.773Z,21.975708
2018-11-02T13:46:56.235Z,21.935425
2018-11-02T13:46:58.707Z,21.925354
2018-11-02T13:47:01.168Z,21.854858
2018-11-02T13:47:03.604Z,21.804504
2018-11-02T13:47:06.056Z,21.774292
2018-11-02T13:47:08.516Z,21.734009
2018-11-02T13:47:10.936Z,21.663513
2018-11-02T13:47:13.433Z,21.582947
2018-11-02T13:47:15.900Z,21.512451
2018-11-02T13:47:18.354Z,21.472168
2018-11-02T13:47:20.836Z,21.441956
2018-11-02T13:47:23.273Z,21.431885
2018-11-02T13:47:26.670Z,21.401672
2018-11-02T13:47:29.075Z,21.401672
2018-11-02T13:47:31.489Z,21.381531
2018-11-02T13:47:33.910Z,21.381531
2018-11-02T13:47:36.330Z,21.37146
2018-11-02T13:47:38.731Z,21.300964
2018-11-02T13:47:41.236Z,21.260681
2018-11-02T13:47:43.695Z,21.220398
2018-11-02T13:47:46.146Z,21.159973
2018-11-02T13:47:48.548Z,21.079407
2018-11-02T13:47:50.997Z,21.049194
2018-11-02T13:47:53.400Z,20.99884
2018-11-02T13:47:55.830Z,20.898132
2018-11-02T13:47:58.205Z,20.827637
2018-11-02T13:48:00.602Z,20.737
2018-11-02T13:48:03.036Z,20.636292
2018-11-02T13:48:05.476Z,20.515442
2018-11-02T13:48:07.881Z,20.414734
2018-11-02T13:48:10.357Z,20.344238
2018-11-02T13:48:12.770Z,20.273743
2018-11-02T13:48:16.184Z,20.223389
2018-11-02T13:48:18.606Z,20.193176
2018-11-02T13:48:21.082Z,20.193176
2018-11-02T13:48:24.495Z,20.122681
2018-11-02T13:48:26.951Z,20.092468
2018-11-02T13:48:30.036Z,20.072327
2018-11-02T13:48:32.487Z,20.042114
2018-11-02T13:48:34.936Z,19.99176
2018-11-02T13:48:37.387Z,19.941406
2018-11-02T13:48:39.866Z,19.901123
2018-11-02T13:48:42.346Z,19.891052
2018-11-02T13:48:44.796Z,19.840698
2018-11-02T13:48:47.245Z,19.820557
2018-11-02T13:48:49.706Z,19.810486
2018-11-02T13:48:52.161Z,19.770203
2018-11-02T13:48:54.647Z,19.709778
2018-11-02T13:48:57.107Z,19.669495
2018-11-02T13:48:59.553Z,19.639282
2018-11-02T13:49:02.016Z,19.629211
2018-11-02T13:49:04.476Z,19.629211
2018-11-02T13:49:06.916Z,19.619141
2018-11-02T13:49:09.384Z,19.568787
2018-11-02T13:49:11.846Z,19.588928
2018-11-02T13:49:14.314Z,19.568787
2018-11-02T13:49:16.746Z,19.870911
2018-11-02T13:49:19.203Z,20.424805
2018-11-02T13:49:21.638Z,21.069336
2018-11-02T13:49:24.097Z,21.895142
2018-11-02T13:49:26.537Z,22.741089
2018-11-02T13:49:29.006Z,23.516541
2018-11-02T13:49:31.484Z,24.110718
2018-11-02T13:49:33.923Z,24.624329
2018-11-02T13:49:36.413Z,25.077515
2018-11-02T13:49:38.876Z,25.450134
2018-11-02T13:49:41.357Z,25.742188
2018-11-02T13:49:43.905Z,25.983887
2018-11-02T13:49:46.386Z,26.195374
2018-11-02T13:49:48.857Z,26.386719
2018-11-02T13:49:51.272Z,26.517639
2018-11-02T13:49:53.717Z,26.638489
2018-11-02T13:49:56.127Z,26.729126
2018-11-02T13:49:58.563Z,26.819763
2018-11-02T13:50:01.027Z,26.90033
2018-11-02T13:50:03.505Z,26.970825
2018-11-02T13:50:05.977Z,27.03125
2018-11-02T13:50:08.503Z,27.101746
2018-11-02T13:50:10.940Z,27.1521
2018-11-02T13:50:13.454Z,27.192383
2018-11-02T13:50:15.915Z,27.232666
2018-11-02T13:50:18.385Z,27.272949
2018-11-02T13:50:20.825Z,27.313232
2018-11-02T13:50:23.351Z,27.323303
2018-11-02T13:50:25.801Z,27.353516
2018-11-02T13:50:28.347Z,27.373657
2018-11-02T13:50:30.765Z,27.383728
2018-11-02T13:50:33.234Z,27.40387
2018-11-02T13:50:35.681Z,27.353516
2018-11-02T13:50:37.976Z,27.1521
2018-11-02T13:50:40.445Z,26.860046
